Terminal Aerodrome Forecast
Issued by NWS Wakefield, VA

Home | Current Version | Previous Version | Text Only | Print | Product List | Glossary On
Versions: 1 2 3 4 5 6 7 8 9 10 11 12 13 14 15 16 17 18 19 20 21 22 23 24 25 26 27 28 29
227
FTUS41 KAKQ 301731
TAFECG
TAF
KECG 301731Z 3018/0118 04009KT P6SM OVC025
     FM302100 06009KT P6SM OVC035
     FM010300 09006KT P6SM OVC020
     FM010900 08005KT P6SM OVC008
     FM011300 20007KT P6SM OVC015
     FM011500 19009KT P6SM BKN035=

USA.gov is the U.S. government's official web portal to all federal, state and local government web resources and services.